sensor_id;sensor_type;location;lat;lon;timestamp;P1;durP1;ratioP1;P2;durP2;ratioP2
24337;SDS011;12457;50.832;4.346;2023-08-06T00:01:33;6.60;;;2.40;;
24337;SDS011;12457;50.832;4.346;2023-08-06T00:03:58;6.80;;;2.67;;
24337;SDS011;12457;50.832;4.346;2023-08-06T00:06:25;5.35;;;2.70;;
24337;SDS011;12457;50.832;4.346;2023-08-06T00:08:51;8.38;;;2.50;;
24337;SDS011;12457;50.832;4.346;2023-08-06T00:11:17;7.10;;;2.88;;
24337;SDS011;12457;50.832;4.346;2023-08-06T00:13:42;6.22;;;2.53;;
24337;SDS011;12457;50.832;4.346;2023-08-06T00:16:11;8.10;;;2.65;;
24337;SDS011;12457;50.832;4.346;2023-08-06T00:18:38;7.03;;;2.95;;
24337;SDS011;12457;50.832;4.346;2023-08-06T00:21:04;5.50;;;2.88;;
24337;SDS011;12457;50.832;4.346;2023-08-06T00:23:29;8.57;;;3.30;;
24337;SDS011;12457;50.832;4.346;2023-08-06T00:25:55;7.78;;;3.70;;
24337;SDS011;12457;50.832;4.346;2023-08-06T00:28:21;10.35;;;6.38;;
24337;SDS011;12457;50.832;4.346;2023-08-06T00:30:52;7.90;;;3.78;;
24337;SDS011;12457;50.832;4.346;2023-08-06T00:33:18;10.00;;;4.07;;
24337;SDS011;12457;50.832;4.346;2023-08-06T00:35:44;11.10;;;3.95;;
24337;SDS011;12457;50.832;4.346;2023-08-06T00:38:11;15.73;;;5.03;;
24337;SDS011;12457;50.832;4.346;2023-08-06T00:40:37;14.57;;;5.85;;
24337;SDS011;12457;50.832;4.346;2023-08-06T00:43:03;9.18;;;4.75;;
24337;SDS011;12457;50.832;4.346;2023-08-06T00:45:29;8.88;;;4.72;;
24337;SDS011;12457;50.832;4.346;2023-08-06T00:47:55;12.68;;;5.43;;
24337;SDS011;12457;50.832;4.346;2023-08-06T00:50:21;15.77;;;4.45;;
24337;SDS011;12457;50.832;4.346;2023-08-06T00:52:51;16.88;;;5.78;;
24337;SDS011;12457;50.832;4.346;2023-08-06T00:55:17;7.85;;;4.63;;
24337;SDS011;12457;50.832;4.346;2023-08-06T00:57:43;10.50;;;4.50;;
24337;SDS011;12457;50.832;4.346;2023-08-06T01:00:09;8.85;;;5.22;;
24337;SDS011;12457;50.832;4.346;2023-08-06T01:02:38;9.82;;;6.35;;
24337;SDS011;12457;50.832;4.346;2023-08-06T01:05:03;11.93;;;5.55;;
24337;SDS011;12457;50.832;4.346;2023-08-06T01:15:50;16.13;;;7.30;;
24337;SDS011;12457;50.832;4.346;2023-08-06T01:18:22;13.10;;;7.40;;
24337;SDS011;12457;50.832;4.346;2023-08-06T01:20:47;10.82;;;7.13;;
24337;SDS011;12457;50.832;4.346;2023-08-06T01:23:15;15.57;;;6.80;;
24337;SDS011;12457;50.832;4.346;2023-08-06T01:25:59;13.38;;;7.10;;
24337;SDS011;12457;50.832;4.346;2023-08-06T01:31:19;12.70;;;6.47;;
24337;SDS011;12457;50.832;4.346;2023-08-06T01:33:49;14.60;;;7.30;;
24337;SDS011;12457;50.832;4.346;2023-08-06T01:36:16;14.70;;;7.18;;
24337;SDS011;12457;50.832;4.346;2023-08-06T01:38:55;13.43;;;6.72;;
24337;SDS011;12457;50.832;4.346;2023-08-06T01:41:22;18.60;;;7.18;;
24337;SDS011;12457;50.832;4.346;2023-08-06T01:43:48;15.70;;;6.78;;
24337;SDS011;12457;50.832;4.346;2023-08-06T01:46:13;13.57;;;6.38;;
24337;SDS011;12457;50.832;4.346;2023-08-06T01:48:39;13.40;;;6.57;;
24337;SDS011;12457;50.832;4.346;2023-08-06T01:51:05;11.85;;;6.05;;
24337;SDS011;12457;50.832;4.346;2023-08-06T01:53:31;11.25;;;4.78;;
24337;SDS011;12457;50.832;4.346;2023-08-06T01:55:58;15.57;;;5.97;;
24337;SDS011;12457;50.832;4.346;2023-08-06T01:58:23;10.23;;;5.45;;
24337;SDS011;12457;50.832;4.346;2023-08-06T02:00:49;11.77;;;5.85;;
24337;SDS011;12457;50.832;4.346;2023-08-06T02:03:15;9.73;;;4.75;;
24337;SDS011;12457;50.832;4.346;2023-08-06T02:05:41;9.88;;;4.47;;
24337;SDS011;12457;50.832;4.346;2023-08-06T02:08:07;12.75;;;3.47;;
24337;SDS011;12457;50.832;4.346;2023-08-06T02:10:32;10.20;;;3.55;;
24337;SDS011;12457;50.832;4.346;2023-08-06T02:12:58;8.68;;;3.72;;
24337;SDS011;12457;50.832;4.346;2023-08-06T02:15:24;9.00;;;4.13;;
24337;SDS011;12457;50.832;4.346;2023-08-06T02:17:49;10.02;;;3.53;;
24337;SDS011;12457;50.832;4.346;2023-08-06T02:20:15;11.10;;;3.22;;
24337;SDS011;12457;50.832;4.346;2023-08-06T02:22:41;11.52;;;2.72;;
24337;SDS011;12457;50.832;4.346;2023-08-06T02:25:08;8.30;;;2.58;;
24337;SDS011;12457;50.832;4.346;2023-08-06T02:27:33;8.82;;;2.40;;
24337;SDS011;12457;50.832;4.346;2023-08-06T02:29:59;9.05;;;3.03;;
24337;SDS011;12457;50.832;4.346;2023-08-06T02:32:25;7.75;;;2.55;;
24337;SDS011;12457;50.832;4.346;2023-08-06T02:34:50;10.05;;;2.70;;
24337;SDS011;12457;50.832;4.346;2023-08-06T02:37:16;11.35;;;3.30;;
24337;SDS011;12457;50.832;4.346;2023-08-06T02:39:43;20.92;;;3.13;;
24337;SDS011;12457;50.832;4.346;2023-08-06T02:42:09;8.20;;;2.20;;
24337;SDS011;12457;50.832;4.346;2023-08-06T02:44:35;11.48;;;2.53;;
24337;SDS011;12457;50.832;4.346;2023-08-06T02:47:01;13.25;;;2.72;;
24337;SDS011;12457;50.832;4.346;2023-08-06T02:49:27;7.50;;;2.55;;
24337;SDS011;12457;50.832;4.346;2023-08-06T02:51:52;8.20;;;2.42;;
24337;SDS011;12457;50.832;4.346;2023-08-06T02:54:18;9.82;;;3.20;;
24337;SDS011;12457;50.832;4.346;2023-08-06T02:56:45;11.25;;;3.25;;
24337;SDS011;12457;50.832;4.346;2023-08-06T02:59:11;10.63;;;3.00;;
24337;SDS011;12457;50.832;4.346;2023-08-06T03:01:38;14.68;;;3.03;;
24337;SDS011;12457;50.832;4.346;2023-08-06T03:04:03;9.57;;;3.08;;
24337;SDS011;12457;50.832;4.346;2023-08-06T03:06:29;14.50;;;4.65;;
24337;SDS011;12457;50.832;4.346;2023-08-06T03:08:55;18.08;;;4.45;;
24337;SDS011;12457;50.832;4.346;2023-08-06T03:11:21;10.60;;;4.28;;
24337;SDS011;12457;50.832;4.346;2023-08-06T03:13:47;13.88;;;4.80;;
24337;SDS011;12457;50.832;4.346;2023-08-06T03:16:13;12.93;;;5.82;;
24337;SDS011;12457;50.832;4.346;2023-08-06T03:18:39;16.90;;;6.88;;
24337;SDS011;12457;50.832;4.346;2023-08-06T03:21:05;22.35;;;8.75;;
24337;SDS011;12457;50.832;4.346;2023-08-06T03:23:31;17.00;;;9.48;;
24337;SDS011;12457;50.832;4.346;2023-08-06T03:26:03;20.75;;;11.18;;
24337;SDS011;12457;50.832;4.346;2023-08-06T03:28:29;18.48;;;10.65;;
24337;SDS011;12457;50.832;4.346;2023-08-06T03:30:58;28.55;;;12.13;;
24337;SDS011;12457;50.832;4.346;2023-08-06T03:33:25;21.05;;;11.32;;
24337;SDS011;12457;50.832;4.346;2023-08-06T03:35:51;20.98;;;11.50;;
24337;SDS011;12457;50.832;4.346;2023-08-06T03:38:17;19.90;;;9.63;;
24337;SDS011;12457;50.832;4.346;2023-08-06T03:43:52;12.13;;;7.88;;
24337;SDS011;12457;50.832;4.346;2023-08-06T03:46:19;11.07;;;6.72;;
24337;SDS011;12457;50.832;4.346;2023-08-06T03:48:44;14.48;;;5.00;;
24337;SDS011;12457;50.832;4.346;2023-08-06T03:51:10;8.05;;;3.80;;
24337;SDS011;12457;50.832;4.346;2023-08-06T03:56:26;8.98;;;2.60;;
24337;SDS011;12457;50.832;4.346;2023-08-06T03:58:52;10.07;;;2.13;;
24337;SDS011;12457;50.832;4.346;2023-08-06T04:01:18;3.80;;;1.75;;
24337;SDS011;12457;50.832;4.346;2023-08-06T04:03:43;6.72;;;2.15;;
24337;SDS011;12457;50.832;4.346;2023-08-06T04:06:09;8.48;;;2.60;;
24337;SDS011;12457;50.832;4.346;2023-08-06T04:08:36;5.68;;;2.22;;
24337;SDS011;12457;50.832;4.346;2023-08-06T04:11:07;3.13;;;1.52;;
24337;SDS011;12457;50.832;4.346;2023-08-06T04:13:33;2.70;;;1.60;;
24337;SDS011;12457;50.832;4.346;2023-08-06T04:16:02;5.97;;;1.88;;
24337;SDS011;12457;50.832;4.346;2023-08-06T04:18:28;3.38;;;1.60;;
24337;SDS011;12457;50.832;4.346;2023-08-06T04:20:54;6.25;;;1.80;;
24337;SDS011;12457;50.832;4.346;2023-08-06T04:23:22;4.13;;;1.95;;
24337;SDS011;12457;50.832;4.346;2023-08-06T04:25:48;5.65;;;2.03;;
24337;SDS011;12457;50.832;4.346;2023-08-06T04:28:14;6.20;;;2.25;;
24337;SDS011;12457;50.832;4.346;2023-08-06T04:30:39;6.90;;;2.50;;
24337;SDS011;12457;50.832;4.346;2023-08-06T04:33:05;7.93;;;2.60;;
24337;SDS011;12457;50.832;4.346;2023-08-06T04:35:31;5.72;;;3.30;;
24337;SDS011;12457;50.832;4.346;2023-08-06T04:37:56;8.35;;;3.42;;
24337;SDS011;12457;50.832;4.346;2023-08-06T04:40:22;8.38;;;3.70;;
24337;SDS011;12457;50.832;4.346;2023-08-06T04:42:48;7.60;;;3.80;;
24337;SDS011;12457;50.832;4.346;2023-08-06T04:45:13;7.20;;;3.70;;
24337;SDS011;12457;50.832;4.346;2023-08-06T04:47:39;6.97;;;3.78;;
24337;SDS011;12457;50.832;4.346;2023-08-06T04:50:05;10.35;;;4.32;;
24337;SDS011;12457;50.832;4.346;2023-08-06T04:52:31;9.52;;;4.35;;
24337;SDS011;12457;50.832;4.346;2023-08-06T04:54:57;10.32;;;4.72;;
24337;SDS011;12457;50.832;4.346;2023-08-06T04:57:23;10.60;;;4.85;;
24337;SDS011;12457;50.832;4.346;2023-08-06T04:59:49;8.27;;;4.78;;
24337;SDS011;12457;50.832;4.346;2023-08-06T05:02:15;10.85;;;5.13;;
24337;SDS011;12457;50.832;4.346;2023-08-06T05:04:41;7.95;;;4.95;;
24337;SDS011;12457;50.832;4.346;2023-08-06T05:07:06;8.88;;;4.30;;
24337;SDS011;12457;50.832;4.346;2023-08-06T05:09:32;10.80;;;4.90;;
24337;SDS011;12457;50.832;4.346;2023-08-06T05:12:00;11.23;;;4.60;;
24337;SDS011;12457;50.832;4.346;2023-08-06T05:14:27;10.80;;;5.70;;
24337;SDS011;12457;50.832;4.346;2023-08-06T05:16:53;10.98;;;4.75;;
24337;SDS011;12457;50.832;4.346;2023-08-06T05:19:18;9.05;;;4.53;;
24337;SDS011;12457;50.832;4.346;2023-08-06T05:21:44;10.20;;;4.53;;
24337;SDS011;12457;50.832;4.346;2023-08-06T05:24:09;6.28;;;3.78;;
24337;SDS011;12457;50.832;4.346;2023-08-06T05:26:35;13.63;;;4.68;;
24337;SDS011;12457;50.832;4.346;2023-08-06T05:29:01;11.23;;;4.78;;
24337;SDS011;12457;50.832;4.346;2023-08-06T05:31:26;7.72;;;4.28;;
24337;SDS011;12457;50.832;4.346;2023-08-06T05:33:54;10.73;;;4.50;;
24337;SDS011;12457;50.832;4.346;2023-08-06T05:36:20;13.80;;;4.50;;
24337;SDS011;12457;50.832;4.346;2023-08-06T05:38:46;14.35;;;4.43;;
24337;SDS011;12457;50.832;4.346;2023-08-06T05:41:12;13.18;;;4.47;;
24337;SDS011;12457;50.832;4.346;2023-08-06T05:43:40;11.82;;;4.43;;
24337;SDS011;12457;50.832;4.346;2023-08-06T05:46:05;11.43;;;5.40;;
24337;SDS011;12457;50.832;4.346;2023-08-06T05:48:31;12.15;;;5.28;;
24337;SDS011;12457;50.832;4.346;2023-08-06T05:50:57;12.07;;;5.82;;
24337;SDS011;12457;50.832;4.346;2023-08-06T05:53:23;19.65;;;5.25;;
24337;SDS011;12457;50.832;4.346;2023-08-06T05:55:49;17.02;;;5.72;;
24337;SDS011;12457;50.832;4.346;2023-08-06T05:58:15;22.77;;;7.28;;
24337;SDS011;12457;50.832;4.346;2023-08-06T06:00:41;15.18;;;5.57;;
24337;SDS011;12457;50.832;4.346;2023-08-06T06:03:07;18.05;;;4.78;;
24337;SDS011;12457;50.832;4.346;2023-08-06T06:05:32;13.75;;;5.05;;
24337;SDS011;12457;50.832;4.346;2023-08-06T06:07:58;14.07;;;4.68;;
24337;SDS011;12457;50.832;4.346;2023-08-06T06:10:24;18.50;;;4.85;;
24337;SDS011;12457;50.832;4.346;2023-08-06T06:12:50;14.10;;;4.72;;
24337;SDS011;12457;50.832;4.346;2023-08-06T06:15:15;21.33;;;5.30;;
24337;SDS011;12457;50.832;4.346;2023-08-06T06:17:41;17.30;;;4.80;;
24337;SDS011;12457;50.832;4.346;2023-08-06T06:20:07;8.95;;;4.75;;
24337;SDS011;12457;50.832;4.346;2023-08-06T06:22:33;12.52;;;4.70;;
24337;SDS011;12457;50.832;4.346;2023-08-06T06:25:08;20.67;;;5.10;;
24337;SDS011;12457;50.832;4.346;2023-08-06T06:27:35;13.57;;;5.20;;
24337;SDS011;12457;50.832;4.346;2023-08-06T06:30:01;18.55;;;4.90;;
24337;SDS011;12457;50.832;4.346;2023-08-06T06:32:26;15.13;;;4.45;;
24337;SDS011;12457;50.832;4.346;2023-08-06T06:34:52;16.83;;;5.05;;
24337;SDS011;12457;50.832;4.346;2023-08-06T06:37:18;16.48;;;4.15;;
24337;SDS011;12457;50.832;4.346;2023-08-06T06:39:43;15.13;;;4.60;;
24337;SDS011;12457;50.832;4.346;2023-08-06T06:42:43;14.57;;;4.53;;
24337;SDS011;12457;50.832;4.346;2023-08-06T06:45:09;13.77;;;4.13;;
24337;SDS011;12457;50.832;4.346;2023-08-06T06:47:35;15.70;;;4.78;;
24337;SDS011;12457;50.832;4.346;2023-08-06T06:50:01;12.23;;;4.28;;
24337;SDS011;12457;50.832;4.346;2023-08-06T06:52:26;21.33;;;4.95;;
24337;SDS011;12457;50.832;4.346;2023-08-06T06:54:52;20.38;;;4.88;;
24337;SDS011;12457;50.832;4.346;2023-08-06T06:57:18;15.13;;;4.32;;
24337;SDS011;12457;50.832;4.346;2023-08-06T06:59:44;11.65;;;4.03;;
24337;SDS011;12457;50.832;4.346;2023-08-06T07:02:09;13.15;;;3.75;;
24337;SDS011;12457;50.832;4.346;2023-08-06T07:04:35;11.32;;;3.28;;
24337;SDS011;12457;50.832;4.346;2023-08-06T07:07:01;8.68;;;3.03;;
24337;SDS011;12457;50.832;4.346;2023-08-06T07:09:27;9.10;;;2.90;;
24337;SDS011;12457;50.832;4.346;2023-08-06T07:11:52;9.57;;;2.40;;
24337;SDS011;12457;50.832;4.346;2023-08-06T07:14:18;9.23;;;2.63;;
24337;SDS011;12457;50.832;4.346;2023-08-06T07:16:44;11.13;;;2.17;;
24337;SDS011;12457;50.832;4.346;2023-08-06T07:19:10;11.68;;;2.45;;
24337;SDS011;12457;50.832;4.346;2023-08-06T07:21:35;10.80;;;2.83;;
24337;SDS011;12457;50.832;4.346;2023-08-06T07:24:01;11.13;;;2.13;;
24337;SDS011;12457;50.832;4.346;2023-08-06T07:26:30;9.98;;;2.85;;
24337;SDS011;12457;50.832;4.346;2023-08-06T07:28:55;9.25;;;2.20;;
24337;SDS011;12457;50.832;4.346;2023-08-06T07:31:21;8.75;;;2.08;;
24337;SDS011;12457;50.832;4.346;2023-08-06T07:33:47;11.15;;;2.00;;
24337;SDS011;12457;50.832;4.346;2023-08-06T07:36:13;5.47;;;1.58;;
24337;SDS011;12457;50.832;4.346;2023-08-06T07:38:40;14.80;;;2.38;;
24337;SDS011;12457;50.832;4.346;2023-08-06T07:41:06;14.55;;;2.10;;
24337;SDS011;12457;50.832;4.346;2023-08-06T07:43:31;13.57;;;2.45;;
24337;SDS011;12457;50.832;4.346;2023-08-06T07:45:58;9.60;;;2.53;;
24337;SDS011;12457;50.832;4.346;2023-08-06T07:48:25;13.55;;;1.95;;
24337;SDS011;12457;50.832;4.346;2023-08-06T07:50:54;15.48;;;2.92;;
24337;SDS011;12457;50.832;4.346;2023-08-06T07:53:21;15.45;;;2.38;;
24337;SDS011;12457;50.832;4.346;2023-08-06T07:55:49;9.85;;;1.75;;
24337;SDS011;12457;50.832;4.346;2023-08-06T07:58:16;17.17;;;2.28;;
24337;SDS011;12457;50.832;4.346;2023-08-06T08:00:42;12.30;;;2.00;;
24337;SDS011;12457;50.832;4.346;2023-08-06T08:03:10;13.05;;;2.22;;
24337;SDS011;12457;50.832;4.346;2023-08-06T08:05:42;9.20;;;2.25;;
24337;SDS011;12457;50.832;4.346;2023-08-06T08:08:08;10.43;;;1.90;;
24337;SDS011;12457;50.832;4.346;2023-08-06T08:10:39;8.95;;;2.20;;
24337;SDS011;12457;50.832;4.346;2023-08-06T08:13:06;15.38;;;2.03;;
24337;SDS011;12457;50.832;4.346;2023-08-06T08:15:32;7.43;;;1.75;;
24337;SDS011;12457;50.832;4.346;2023-08-06T08:17:58;10.98;;;2.20;;
24337;SDS011;12457;50.832;4.346;2023-08-06T08:20:24;14.85;;;2.22;;
24337;SDS011;12457;50.832;4.346;2023-08-06T08:22:51;9.10;;;2.38;;
24337;SDS011;12457;50.832;4.346;2023-08-06T08:25:17;7.88;;;2.30;;
24337;SDS011;12457;50.832;4.346;2023-08-06T08:27:43;5.93;;;2.10;;
24337;SDS011;12457;50.832;4.346;2023-08-06T08:30:08;9.27;;;2.33;;
24337;SDS011;12457;50.832;4.346;2023-08-06T08:32:34;8.07;;;1.90;;
24337;SDS011;12457;50.832;4.346;2023-08-06T08:35:00;9.43;;;2.20;;
24337;SDS011;12457;50.832;4.346;2023-08-06T08:37:26;8.35;;;1.90;;
24337;SDS011;12457;50.832;4.346;2023-08-06T08:39:52;13.07;;;2.05;;
24337;SDS011;12457;50.832;4.346;2023-08-06T08:42:17;11.25;;;2.03;;
24337;SDS011;12457;50.832;4.346;2023-08-06T08:44:43;14.13;;;2.33;;
24337;SDS011;12457;50.832;4.346;2023-08-06T08:47:10;9.85;;;1.95;;
24337;SDS011;12457;50.832;4.346;2023-08-06T08:49:37;12.13;;;2.47;;
24337;SDS011;12457;50.832;4.346;2023-08-06T08:52:05;12.38;;;2.10;;
24337;SDS011;12457;50.832;4.346;2023-08-06T08:54:34;11.02;;;2.00;;
24337;SDS011;12457;50.832;4.346;2023-08-06T08:57:18;9.13;;;1.88;;
24337;SDS011;12457;50.832;4.346;2023-08-06T08:59:44;12.13;;;1.65;;
24337;SDS011;12457;50.832;4.346;2023-08-06T09:02:11;11.75;;;2.10;;
24337;SDS011;12457;50.832;4.346;2023-08-06T09:04:38;13.77;;;1.83;;
24337;SDS011;12457;50.832;4.346;2023-08-06T09:07:05;6.78;;;1.90;;
24337;SDS011;12457;50.832;4.346;2023-08-06T09:09:35;13.88;;;2.17;;
24337;SDS011;12457;50.832;4.346;2023-08-06T09:12:07;10.32;;;2.63;;
24337;SDS011;12457;50.832;4.346;2023-08-06T09:14:37;9.88;;;2.28;;
24337;SDS011;12457;50.832;4.346;2023-08-06T09:17:06;11.95;;;2.38;;
24337;SDS011;12457;50.832;4.346;2023-08-06T09:19:35;10.63;;;2.28;;
24337;SDS011;12457;50.832;4.346;2023-08-06T09:22:01;8.70;;;2.42;;
24337;SDS011;12457;50.832;4.346;2023-08-06T09:24:27;10.07;;;2.13;;
24337;SDS011;12457;50.832;4.346;2023-08-06T09:26:53;9.60;;;2.60;;
24337;SDS011;12457;50.832;4.346;2023-08-06T09:29:19;9.18;;;2.38;;
24337;SDS011;12457;50.832;4.346;2023-08-06T09:36:42;12.38;;;2.80;;
24337;SDS011;12457;50.832;4.346;2023-08-06T09:39:14;8.73;;;2.63;;
24337;SDS011;12457;50.832;4.346;2023-08-06T09:41:42;9.73;;;2.40;;
24337;SDS011;12457;50.832;4.346;2023-08-06T09:44:26;11.50;;;3.00;;
24337;SDS011;12457;50.832;4.346;2023-08-06T09:47:00;10.77;;;2.30;;
24337;SDS011;12457;50.832;4.346;2023-08-06T09:49:28;13.73;;;2.83;;
24337;SDS011;12457;50.832;4.346;2023-08-06T09:52:09;11.68;;;2.60;;
24337;SDS011;12457;50.832;4.346;2023-08-06T09:54:41;7.43;;;2.70;;
24337;SDS011;12457;50.832;4.346;2023-08-06T09:57:12;10.10;;;2.58;;
24337;SDS011;12457;50.832;4.346;2023-08-06T09:59:39;16.15;;;2.50;;
24337;SDS011;12457;50.832;4.346;2023-08-06T10:02:10;13.23;;;2.70;;
24337;SDS011;12457;50.832;4.346;2023-08-06T10:04:38;17.08;;;2.70;;
24337;SDS011;12457;50.832;4.346;2023-08-06T10:07:04;11.52;;;2.45;;
24337;SDS011;12457;50.832;4.346;2023-08-06T10:09:31;17.02;;;4.20;;
24337;SDS011;12457;50.832;4.346;2023-08-06T10:11:57;8.73;;;2.65;;
24337;SDS011;12457;50.832;4.346;2023-08-06T10:14:25;10.40;;;2.47;;
24337;SDS011;12457;50.832;4.346;2023-08-06T10:16:56;11.50;;;1.98;;
24337;SDS011;12457;50.832;4.346;2023-08-06T10:19:23;13.52;;;2.17;;
24337;SDS011;12457;50.832;4.346;2023-08-06T10:22:09;9.02;;;1.98;;
24337;SDS011;12457;50.832;4.346;2023-08-06T10:24:55;7.03;;;1.90;;
24337;SDS011;12457;50.832;4.346;2023-08-06T10:27:29;11.95;;;3.40;;
24337;SDS011;12457;50.832;4.346;2023-08-06T10:33:00;12.27;;;2.22;;
24337;SDS011;12457;50.832;4.346;2023-08-06T10:38:25;9.85;;;2.50;;
24337;SDS011;12457;50.832;4.346;2023-08-06T10:43:29;13.00;;;2.40;;
24337;SDS011;12457;50.832;4.346;2023-08-06T10:45:58;12.68;;;2.50;;
24337;SDS011;12457;50.832;4.346;2023-08-06T10:48:33;7.90;;;3.03;;
24337;SDS011;12457;50.832;4.346;2023-08-06T10:50:59;15.07;;;3.30;;
24337;SDS011;12457;50.832;4.346;2023-08-06T10:53:25;10.43;;;2.72;;
24337;SDS011;12457;50.832;4.346;2023-08-06T10:55:51;12.45;;;3.60;;
24337;SDS011;12457;50.832;4.346;2023-08-06T10:58:17;20.38;;;2.97;;
24337;SDS011;12457;50.832;4.346;2023-08-06T11:00:43;17.00;;;3.00;;
24337;SDS011;12457;50.832;4.346;2023-08-06T11:03:09;8.98;;;2.53;;
24337;SDS011;12457;50.832;4.346;2023-08-06T11:05:38;13.77;;;3.45;;
24337;SDS011;12457;50.832;4.346;2023-08-06T11:08:04;16.63;;;2.70;;
24337;SDS011;12457;50.832;4.346;2023-08-06T11:10:32;13.57;;;3.15;;
24337;SDS011;12457;50.832;4.346;2023-08-06T11:13:01;15.05;;;3.58;;
24337;SDS011;12457;50.832;4.346;2023-08-06T11:15:28;14.20;;;3.67;;
24337;SDS011;12457;50.832;4.346;2023-08-06T11:17:55;13.27;;;2.80;;
24337;SDS011;12457;50.832;4.346;2023-08-06T11:20:21;15.68;;;2.63;;
24337;SDS011;12457;50.832;4.346;2023-08-06T11:22:48;10.88;;;2.75;;
24337;SDS011;12457;50.832;4.346;2023-08-06T11:25:13;10.52;;;4.05;;
24337;SDS011;12457;50.832;4.346;2023-08-06T11:27:40;13.77;;;2.42;;
24337;SDS011;12457;50.832;4.346;2023-08-06T11:30:06;13.25;;;3.03;;
24337;SDS011;12457;50.832;4.346;2023-08-06T11:32:32;13.38;;;2.22;;
24337;SDS011;12457;50.832;4.346;2023-08-06T11:35:08;16.50;;;2.47;;
24337;SDS011;12457;50.832;4.346;2023-08-06T11:37:35;9.55;;;1.98;;
24337;SDS011;12457;50.832;4.346;2023-08-06T11:40:06;8.45;;;2.30;;
24337;SDS011;12457;50.832;4.346;2023-08-06T11:42:39;10.25;;;2.22;;
24337;SDS011;12457;50.832;4.346;2023-08-06T11:45:05;9.65;;;1.83;;
24337;SDS011;12457;50.832;4.346;2023-08-06T11:47:33;9.77;;;2.20;;
24337;SDS011;12457;50.832;4.346;2023-08-06T11:49:59;10.00;;;2.03;;
24337;SDS011;12457;50.832;4.346;2023-08-06T11:52:26;8.27;;;1.88;;
24337;SDS011;12457;50.832;4.346;2023-08-06T11:55:00;9.10;;;1.90;;
24337;SDS011;12457;50.832;4.346;2023-08-06T11:57:39;8.73;;;2.00;;
24337;SDS011;12457;50.832;4.346;2023-08-06T12:00:11;11.82;;;2.20;;
24337;SDS011;12457;50.832;4.346;2023-08-06T12:02:38;10.05;;;2.55;;
24337;SDS011;12457;50.832;4.346;2023-08-06T12:07:45;5.90;;;1.90;;
24337;SDS011;12457;50.832;4.346;2023-08-06T12:10:13;12.63;;;2.83;;
24337;SDS011;12457;50.832;4.346;2023-08-06T12:12:42;8.32;;;2.20;;
24337;SDS011;12457;50.832;4.346;2023-08-06T12:15:09;11.55;;;2.33;;
24337;SDS011;12457;50.832;4.346;2023-08-06T12:17:35;11.15;;;2.25;;
24337;SDS011;12457;50.832;4.346;2023-08-06T12:20:04;9.15;;;2.08;;
24337;SDS011;12457;50.832;4.346;2023-08-06T12:22:32;10.23;;;2.45;;
24337;SDS011;12457;50.832;4.346;2023-08-06T12:25:02;9.90;;;2.47;;
24337;SDS011;12457;50.832;4.346;2023-08-06T12:27:43;9.38;;;2.40;;
24337;SDS011;12457;50.832;4.346;2023-08-06T12:30:10;8.30;;;2.20;;
24337;SDS011;12457;50.832;4.346;2023-08-06T12:32:37;11.35;;;2.10;;
24337;SDS011;12457;50.832;4.346;2023-08-06T12:35:03;11.60;;;2.60;;
24337;SDS011;12457;50.832;4.346;2023-08-06T12:37:30;8.02;;;2.10;;
24337;SDS011;12457;50.832;4.346;2023-08-06T12:39:55;8.73;;;2.00;;
24337;SDS011;12457;50.832;4.346;2023-08-06T12:42:21;14.02;;;2.25;;
24337;SDS011;12457;50.832;4.346;2023-08-06T12:44:49;6.80;;;1.90;;
24337;SDS011;12457;50.832;4.346;2023-08-06T12:47:15;12.90;;;2.22;;
24337;SDS011;12457;50.832;4.346;2023-08-06T12:49:42;11.43;;;2.40;;
24337;SDS011;12457;50.832;4.346;2023-08-06T12:52:07;8.57;;;2.35;;
24337;SDS011;12457;50.832;4.346;2023-08-06T12:54:37;10.27;;;2.30;;
24337;SDS011;12457;50.832;4.346;2023-08-06T12:57:03;11.32;;;2.00;;
24337;SDS011;12457;50.832;4.346;2023-08-06T12:59:35;9.27;;;1.70;;
24337;SDS011;12457;50.832;4.346;2023-08-06T13:02:04;9.23;;;1.75;;
24337;SDS011;12457;50.832;4.346;2023-08-06T13:04:30;10.98;;;2.05;;
24337;SDS011;12457;50.832;4.346;2023-08-06T13:06:56;11.35;;;2.22;;
24337;SDS011;12457;50.832;4.346;2023-08-06T13:09:22;8.32;;;2.17;;
24337;SDS011;12457;50.832;4.346;2023-08-06T13:11:48;9.30;;;2.33;;
24337;SDS011;12457;50.832;4.346;2023-08-06T13:17:23;11.07;;;2.60;;
24337;SDS011;12457;50.832;4.346;2023-08-06T13:19:49;12.75;;;2.75;;
24337;SDS011;12457;50.832;4.346;2023-08-06T13:22:15;7.68;;;2.35;;
24337;SDS011;12457;50.832;4.346;2023-08-06T13:24:40;14.00;;;2.72;;
24337;SDS011;12457;50.832;4.346;2023-08-06T13:27:06;11.43;;;2.58;;
24337;SDS011;12457;50.832;4.346;2023-08-06T13:29:39;14.90;;;2.70;;
24337;SDS011;12457;50.832;4.346;2023-08-06T13:32:05;9.00;;;2.58;;
24337;SDS011;12457;50.832;4.346;2023-08-06T13:34:31;9.77;;;2.50;;
24337;SDS011;12457;50.832;4.346;2023-08-06T13:36:56;12.10;;;2.47;;
24337;SDS011;12457;50.832;4.346;2023-08-06T13:39:22;10.15;;;2.08;;
24337;SDS011;12457;50.832;4.346;2023-08-06T13:41:48;10.55;;;2.72;;
24337;SDS011;12457;50.832;4.346;2023-08-06T13:44:15;13.15;;;3.05;;
24337;SDS011;12457;50.832;4.346;2023-08-06T13:46:41;10.73;;;2.50;;
24337;SDS011;12457;50.832;4.346;2023-08-06T13:49:07;9.10;;;2.00;;
24337;SDS011;12457;50.832;4.346;2023-08-06T13:51:32;12.15;;;3.00;;
24337;SDS011;12457;50.832;4.346;2023-08-06T13:54:02;8.20;;;2.33;;
24337;SDS011;12457;50.832;4.346;2023-08-06T13:56:27;7.13;;;1.80;;
24337;SDS011;12457;50.832;4.346;2023-08-06T13:58:54;9.15;;;2.88;;
24337;SDS011;12457;50.832;4.346;2023-08-06T14:01:20;11.68;;;2.72;;
24337;SDS011;12457;50.832;4.346;2023-08-06T14:03:46;13.23;;;3.45;;
24337;SDS011;12457;50.832;4.346;2023-08-06T14:06:11;9.90;;;2.03;;
24337;SDS011;12457;50.832;4.346;2023-08-06T14:08:37;8.52;;;1.83;;
24337;SDS011;12457;50.832;4.346;2023-08-06T14:11:05;11.35;;;1.95;;
24337;SDS011;12457;50.832;4.346;2023-08-06T14:13:31;9.50;;;2.08;;
24337;SDS011;12457;50.832;4.346;2023-08-06T14:15:57;6.60;;;1.70;;
24337;SDS011;12457;50.832;4.346;2023-08-06T14:18:22;9.82;;;2.08;;
24337;SDS011;12457;50.832;4.346;2023-08-06T14:20:48;8.93;;;1.90;;
24337;SDS011;12457;50.832;4.346;2023-08-06T14:23:14;8.15;;;2.08;;
24337;SDS011;12457;50.832;4.346;2023-08-06T14:25:39;9.68;;;2.30;;
24337;SDS011;12457;50.832;4.346;2023-08-06T14:28:07;11.85;;;2.20;;
24337;SDS011;12457;50.832;4.346;2023-08-06T14:30:38;12.25;;;2.42;;
24337;SDS011;12457;50.832;4.346;2023-08-06T14:33:04;11.93;;;2.22;;
24337;SDS011;12457;50.832;4.346;2023-08-06T14:35:30;11.48;;;3.17;;
24337;SDS011;12457;50.832;4.346;2023-08-06T14:37:55;8.23;;;2.17;;
24337;SDS011;12457;50.832;4.346;2023-08-06T14:40:21;14.43;;;2.78;;
24337;SDS011;12457;50.832;4.346;2023-08-06T14:42:47;9.07;;;2.55;;
24337;SDS011;12457;50.832;4.346;2023-08-06T14:45:12;11.18;;;2.40;;
24337;SDS011;12457;50.832;4.346;2023-08-06T14:47:38;20.65;;;3.25;;
24337;SDS011;12457;50.832;4.346;2023-08-06T14:50:05;12.80;;;2.70;;
24337;SDS011;12457;50.832;4.346;2023-08-06T14:52:31;7.63;;;2.17;;
24337;SDS011;12457;50.832;4.346;2023-08-06T14:55:06;12.02;;;2.70;;
24337;SDS011;12457;50.832;4.346;2023-08-06T14:57:32;16.25;;;3.03;;
24337;SDS011;12457;50.832;4.346;2023-08-06T14:59:58;12.38;;;2.28;;
24337;SDS011;12457;50.832;4.346;2023-08-06T15:02:23;11.85;;;2.20;;
24337;SDS011;12457;50.832;4.346;2023-08-06T15:04:50;14.95;;;3.17;;
24337;SDS011;12457;50.832;4.346;2023-08-06T15:07:19;14.32;;;3.70;;
24337;SDS011;12457;50.832;4.346;2023-08-06T15:09:44;9.80;;;2.72;;
24337;SDS011;12457;50.832;4.346;2023-08-06T15:12:10;7.30;;;2.22;;
24337;SDS011;12457;50.832;4.346;2023-08-06T15:17:33;15.10;;;2.30;;